sensor_id;sensor_type;location;lat;lon;timestamp;pressure;altitude;pressure_sealevel;temperature;humidity
23361;BME280;11852;50.082;18.554;2024-02-21T00:00:46;99297.0;;;6.49;100.0
23361;BME280;11852;50.082;18.554;2024-02-21T00:01:51;99300.0;;;6.5;100.0
23361;BME280;11852;50.082;18.554;2024-02-21T00:02:56;99302.0;;;6.48;100.0
23361;BME280;11852;50.082;18.554;2024-02-21T00:04:01;99295.0;;;6.5;100.0
23361;BME280;11852;50.082;18.554;2024-02-21T00:05:06;99297.0;;;6.49;100.0
23361;BME280;11852;50.082;18.554;2024-02-21T00:06:11;99297.0;;;6.46;100.0
23361;BME280;11852;50.082;18.554;2024-02-21T00:07:16;99297.0;;;6.43;100.0
23361;BME280;11852;50.082;18.554;2024-02-21T00:08:21;99296.0;;;6.45;100.0
23361;BME280;11852;50.082;18.554;2024-02-21T00:09:26;99296.0;;;6.46;100.0
23361;BME280;11852;50.082;18.554;2024-02-21T00:10:33;99293.0;;;6.47;100.0
23361;BME280;11852;50.082;18.554;2024-02-21T00:11:39;99296.0;;;6.48;100.0
23361;BME280;11852;50.082;18.554;2024-02-21T00:12:44;99293.0;;;6.49;100.0
23361;BME280;11852;50.082;18.554;2024-02-21T00:13:48;99296.0;;;6.51;100.0
23361;BME280;11852;50.082;18.554;2024-02-21T00:14:53;99292.0;;;6.5;100.0
23361;BME280;11852;50.082;18.554;2024-02-21T00:16:00;99294.0;;;6.51;100.0
23361;BME280;11852;50.082;18.554;2024-02-21T00:17:03;99292.0;;;6.51;100.0
23361;BME280;11852;50.082;18.554;2024-02-21T00:18:09;99288.0;;;6.5;100.0
23361;BME280;11852;50.082;18.554;2024-02-21T00:19:14;99290.0;;;6.51;100.0
23361;BME280;11852;50.082;18.554;2024-02-21T00:20:18;99290.0;;;6.51;100.0
23361;BME280;11852;50.082;18.554;2024-02-21T00:21:23;99286.0;;;6.52;100.0
23361;BME280;11852;50.082;18.554;2024-02-21T00:22:28;99285.0;;;6.52;100.0
23361;BME280;11852;50.082;18.554;2024-02-21T00:23:33;99287.0;;;6.54;100.0
23361;BME280;11852;50.082;18.554;2024-02-21T00:24:38;99285.0;;;6.53;100.0
23361;BME280;11852;50.082;18.554;2024-02-21T00:25:43;99288.0;;;6.54;100.0
23361;BME280;11852;50.082;18.554;2024-02-21T00:26:48;99281.0;;;6.54;100.0
23361;BME280;11852;50.082;18.554;2024-02-21T00:27:53;99279.0;;;6.55;100.0
23361;BME280;11852;50.082;18.554;2024-02-21T00:28:58;99280.0;;;6.55;100.0
23361;BME280;11852;50.082;18.554;2024-02-21T00:30:03;99281.0;;;6.56;100.0
23361;BME280;11852;50.082;18.554;2024-02-21T00:31:08;99280.0;;;6.58;100.0
23361;BME280;11852;50.082;18.554;2024-02-21T00:32:13;99279.0;;;6.57;100.0
23361;BME280;11852;50.082;18.554;2024-02-21T00:33:18;99281.0;;;6.57;100.0
23361;BME280;11852;50.082;18.554;2024-02-21T00:34:23;99279.0;;;6.55;100.0
23361;BME280;11852;50.082;18.554;2024-02-21T00:35:29;99281.0;;;6.53;100.0
23361;BME280;11852;50.082;18.554;2024-02-21T00:36:34;99279.0;;;6.52;100.0
23361;BME280;11852;50.082;18.554;2024-02-21T00:37:39;99277.0;;;6.52;100.0
23361;BME280;11852;50.082;18.554;2024-02-21T00:38:43;99277.0;;;6.53;100.0
23361;BME280;11852;50.082;18.554;2024-02-21T00:39:48;99276.0;;;6.52;100.0
23361;BME280;11852;50.082;18.554;2024-02-21T00:40:55;99272.0;;;6.5;100.0
23361;BME280;11852;50.082;18.554;2024-02-21T00:41:59;99269.0;;;6.53;100.0
23361;BME280;11852;50.082;18.554;2024-02-21T00:43:04;99265.0;;;6.53;100.0
23361;BME280;11852;50.082;18.554;2024-02-21T00:44:09;99265.0;;;6.54;100.0
23361;BME280;11852;50.082;18.554;2024-02-21T00:45:14;99262.0;;;6.52;100.0
23361;BME280;11852;50.082;18.554;2024-02-21T00:46:19;99261.0;;;6.52;100.0
23361;BME280;11852;50.082;18.554;2024-02-21T00:47:24;99263.0;;;6.45;100.0
23361;BME280;11852;50.082;18.554;2024-02-21T00:48:29;99263.0;;;6.39;100.0
23361;BME280;11852;50.082;18.554;2024-02-21T00:49:34;99260.0;;;6.35;100.0
23361;BME280;11852;50.082;18.554;2024-02-21T00:50:39;99260.0;;;6.34;100.0
23361;BME280;11852;50.082;18.554;2024-02-21T00:51:45;99258.0;;;6.38;100.0
23361;BME280;11852;50.082;18.554;2024-02-21T00:52:50;99257.0;;;6.39;100.0
23361;BME280;11852;50.082;18.554;2024-02-21T00:53:55;99257.0;;;6.41;100.0
23361;BME280;11852;50.082;18.554;2024-02-21T00:55:03;99253.0;;;6.42;100.0
23361;BME280;11852;50.082;18.554;2024-02-21T00:56:08;99252.0;;;6.44;100.0
23361;BME280;11852;50.082;18.554;2024-02-21T00:57:13;99253.0;;;6.45;100.0
23361;BME280;11852;50.082;18.554;2024-02-21T00:58:17;99251.0;;;6.46;100.0
23361;BME280;11852;50.082;18.554;2024-02-21T00:59:22;99252.0;;;6.48;100.0
23361;BME280;11852;50.082;18.554;2024-02-21T01:00:27;99251.0;;;6.49;100.0
23361;BME280;11852;50.082;18.554;2024-02-21T01:01:32;99253.0;;;6.49;100.0
23361;BME280;11852;50.082;18.554;2024-02-21T01:02:37;99251.0;;;6.5;100.0
23361;BME280;11852;50.082;18.554;2024-02-21T01:03:42;99245.0;;;6.5;100.0
23361;BME280;11852;50.082;18.554;2024-02-21T01:04:47;99249.0;;;6.51;100.0
23361;BME280;11852;50.082;18.554;2024-02-21T01:05:53;99249.0;;;6.52;100.0
23361;BME280;11852;50.082;18.554;2024-02-21T01:06:58;99248.0;;;6.53;100.0
23361;BME280;11852;50.082;18.554;2024-02-21T01:08:04;99247.0;;;6.54;100.0
23361;BME280;11852;50.082;18.554;2024-02-21T01:09:12;99251.0;;;6.5;100.0
23361;BME280;11852;50.082;18.554;2024-02-21T01:10:17;99248.0;;;6.43;100.0
23361;BME280;11852;50.082;18.554;2024-02-21T01:11:22;99250.0;;;6.42;100.0
23361;BME280;11852;50.082;18.554;2024-02-21T01:12:27;99245.0;;;6.34;100.0
23361;BME280;11852;50.082;18.554;2024-02-21T01:13:32;99249.0;;;6.34;100.0
23361;BME280;11852;50.082;18.554;2024-02-21T01:14:37;99249.0;;;6.29;100.0
23361;BME280;11852;50.082;18.554;2024-02-21T01:15:42;99249.0;;;6.31;100.0
23361;BME280;11852;50.082;18.554;2024-02-21T01:16:47;99248.0;;;6.3;100.0
23361;BME280;11852;50.082;18.554;2024-02-21T01:17:52;99251.0;;;6.15;100.0
23361;BME280;11852;50.082;18.554;2024-02-21T01:18:57;99255.0;;;6.17;100.0
23361;BME280;11852;50.082;18.554;2024-02-21T01:20:03;99253.0;;;6.16;100.0
23361;BME280;11852;50.082;18.554;2024-02-21T01:21:07;99258.0;;;6.15;100.0
23361;BME280;11852;50.082;18.554;2024-02-21T01:22:12;99260.0;;;6.19;100.0
23361;BME280;11852;50.082;18.554;2024-02-21T01:23:18;99257.0;;;6.19;100.0
23361;BME280;11852;50.082;18.554;2024-02-21T01:24:23;99260.0;;;6.19;100.0
23361;BME280;11852;50.082;18.554;2024-02-21T01:25:28;99256.0;;;6.17;100.0
23361;BME280;11852;50.082;18.554;2024-02-21T01:26:33;99254.0;;;6.17;100.0
23361;BME280;11852;50.082;18.554;2024-02-21T01:27:38;99250.0;;;6.15;100.0
23361;BME280;11852;50.082;18.554;2024-02-21T01:28:43;99250.0;;;6.12;100.0
23361;BME280;11852;50.082;18.554;2024-02-21T01:29:48;99248.0;;;6.11;100.0
23361;BME280;11852;50.082;18.554;2024-02-21T01:30:53;99248.0;;;6.09;100.0
23361;BME280;11852;50.082;18.554;2024-02-21T01:31:58;99243.0;;;6.1;100.0
23361;BME280;11852;50.082;18.554;2024-02-21T01:33:03;99238.0;;;6.11;100.0
23361;BME280;11852;50.082;18.554;2024-02-21T01:34:08;99232.0;;;6.12;100.0
23361;BME280;11852;50.082;18.554;2024-02-21T01:35:13;99234.0;;;5.99;100.0
23361;BME280;11852;50.082;18.554;2024-02-21T01:36:18;99238.0;;;6.04;100.0
23361;BME280;11852;50.082;18.554;2024-02-21T01:37:23;99234.0;;;5.96;100.0
23361;BME280;11852;50.082;18.554;2024-02-21T01:38:28;99233.0;;;5.94;100.0
23361;BME280;11852;50.082;18.554;2024-02-21T01:39:33;99238.0;;;5.89;100.0
23361;BME280;11852;50.082;18.554;2024-02-21T01:40:38;99238.0;;;5.91;100.0
23361;BME280;11852;50.082;18.554;2024-02-21T01:41:43;99233.0;;;5.9;100.0
23361;BME280;11852;50.082;18.554;2024-02-21T01:42:47;99228.0;;;5.92;100.0
23361;BME280;11852;50.082;18.554;2024-02-21T01:43:52;99225.0;;;5.95;100.0
23361;BME280;11852;50.082;18.554;2024-02-21T01:44:57;99227.0;;;5.96;100.0
23361;BME280;11852;50.082;18.554;2024-02-21T01:46:02;99222.0;;;5.91;100.0
23361;BME280;11852;50.082;18.554;2024-02-21T01:47:07;99224.0;;;5.97;100.0
23361;BME280;11852;50.082;18.554;2024-02-21T01:48:12;99224.0;;;5.95;100.0
23361;BME280;11852;50.082;18.554;2024-02-21T01:49:18;99229.0;;;5.95;100.0
23361;BME280;11852;50.082;18.554;2024-02-21T01:50:22;99226.0;;;5.91;100.0
23361;BME280;11852;50.082;18.554;2024-02-21T01:51:27;99223.0;;;5.83;100.0
23361;BME280;11852;50.082;18.554;2024-02-21T01:52:32;99226.0;;;5.83;100.0
23361;BME280;11852;50.082;18.554;2024-02-21T01:53:38;99226.0;;;5.82;100.0
23361;BME280;11852;50.082;18.554;2024-02-21T01:54:43;99227.0;;;5.77;100.0
23361;BME280;11852;50.082;18.554;2024-02-21T01:55:47;99229.0;;;5.73;100.0
23361;BME280;11852;50.082;18.554;2024-02-21T01:56:52;99230.0;;;5.74;100.0
23361;BME280;11852;50.082;18.554;2024-02-21T01:57:57;99230.0;;;5.81;100.0
23361;BME280;11852;50.082;18.554;2024-02-21T01:59:02;99229.0;;;5.85;100.0
23361;BME280;11852;50.082;18.554;2024-02-21T02:00:07;99226.0;;;5.86;100.0
23361;BME280;11852;50.082;18.554;2024-02-21T02:01:15;99224.0;;;5.89;100.0
23361;BME280;11852;50.082;18.554;2024-02-21T02:02:21;99228.0;;;5.93;100.0
23361;BME280;11852;50.082;18.554;2024-02-21T02:03:27;99224.0;;;5.93;100.0
23361;BME280;11852;50.082;18.554;2024-02-21T02:04:32;99227.0;;;5.97;100.0
23361;BME280;11852;50.082;18.554;2024-02-21T02:05:37;99224.0;;;5.93;100.0
23361;BME280;11852;50.082;18.554;2024-02-21T02:06:45;99228.0;;;5.96;100.0
23361;BME280;11852;50.082;18.554;2024-02-21T02:07:52;99223.0;;;5.98;100.0
23361;BME280;11852;50.082;18.554;2024-02-21T02:09:00;99219.0;;;6.0;100.0
23361;BME280;11852;50.082;18.554;2024-02-21T02:10:05;99221.0;;;6.04;100.0
23361;BME280;11852;50.082;18.554;2024-02-21T02:11:12;99219.0;;;6.05;100.0
23361;BME280;11852;50.082;18.554;2024-02-21T02:12:15;99217.0;;;6.07;100.0
23361;BME280;11852;50.082;18.554;2024-02-21T02:13:20;99214.0;;;6.04;100.0
23361;BME280;11852;50.082;18.554;2024-02-21T02:14:25;99213.0;;;6.07;100.0
23361;BME280;11852;50.082;18.554;2024-02-21T02:16:46;99215.0;;;6.12;100.0
23361;BME280;11852;50.082;18.554;2024-02-21T02:17:51;99212.0;;;6.14;100.0
23361;BME280;11852;50.082;18.554;2024-02-21T02:18:56;99214.0;;;6.15;100.0
23361;BME280;11852;50.082;18.554;2024-02-21T02:20:01;99215.0;;;6.14;100.0
23361;BME280;11852;50.082;18.554;2024-02-21T02:21:08;99211.0;;;6.14;100.0
23361;BME280;11852;50.082;18.554;2024-02-21T02:22:13;99214.0;;;6.15;100.0
23361;BME280;11852;50.082;18.554;2024-02-21T02:24:27;99210.0;;;6.17;100.0
23361;BME280;11852;50.082;18.554;2024-02-21T02:25:32;99212.0;;;6.18;100.0
23361;BME280;11852;50.082;18.554;2024-02-21T02:26:37;99213.0;;;6.2;100.0
23361;BME280;11852;50.082;18.554;2024-02-21T02:27:42;99208.0;;;6.22;100.0
23361;BME280;11852;50.082;18.554;2024-02-21T02:28:47;99205.0;;;6.22;100.0
23361;BME280;11852;50.082;18.554;2024-02-21T02:29:52;99206.0;;;6.22;100.0
23361;BME280;11852;50.082;18.554;2024-02-21T02:30:57;99199.0;;;6.23;100.0
23361;BME280;11852;50.082;18.554;2024-02-21T02:32:02;99199.0;;;6.28;100.0
23361;BME280;11852;50.082;18.554;2024-02-21T02:33:07;99198.0;;;6.29;100.0
23361;BME280;11852;50.082;18.554;2024-02-21T02:34:12;99197.0;;;6.31;100.0
23361;BME280;11852;50.082;18.554;2024-02-21T02:35:18;99197.0;;;6.32;100.0
23361;BME280;11852;50.082;18.554;2024-02-21T02:36:23;99194.0;;;6.32;100.0
23361;BME280;11852;50.082;18.554;2024-02-21T02:37:28;99195.0;;;6.32;100.0
23361;BME280;11852;50.082;18.554;2024-02-21T02:38:33;99194.0;;;6.32;100.0
23361;BME280;11852;50.082;18.554;2024-02-21T02:39:38;99199.0;;;6.33;100.0
23361;BME280;11852;50.082;18.554;2024-02-21T02:40:43;99197.0;;;6.32;100.0
23361;BME280;11852;50.082;18.554;2024-02-21T02:41:48;99193.0;;;6.3;100.0
23361;BME280;11852;50.082;18.554;2024-02-21T02:42:53;99195.0;;;6.3;100.0
23361;BME280;11852;50.082;18.554;2024-02-21T02:43:58;99191.0;;;6.27;100.0
23361;BME280;11852;50.082;18.554;2024-02-21T02:45:04;99194.0;;;6.27;100.0
23361;BME280;11852;50.082;18.554;2024-02-21T02:46:08;99194.0;;;6.26;100.0
23361;BME280;11852;50.082;18.554;2024-02-21T02:47:13;99190.0;;;6.26;100.0
23361;BME280;11852;50.082;18.554;2024-02-21T02:48:18;99192.0;;;6.25;100.0
23361;BME280;11852;50.082;18.554;2024-02-21T02:49:23;99190.0;;;6.26;100.0
23361;BME280;11852;50.082;18.554;2024-02-21T02:50:28;99191.0;;;6.26;100.0
23361;BME280;11852;50.082;18.554;2024-02-21T02:51:33;99190.0;;;6.27;100.0
23361;BME280;11852;50.082;18.554;2024-02-21T02:52:39;99185.0;;;6.26;100.0
23361;BME280;11852;50.082;18.554;2024-02-21T02:53:43;99184.0;;;6.26;100.0
23361;BME280;11852;50.082;18.554;2024-02-21T02:54:48;99178.0;;;6.26;100.0
23361;BME280;11852;50.082;18.554;2024-02-21T02:55:53;99179.0;;;6.26;100.0
23361;BME280;11852;50.082;18.554;2024-02-21T02:56:58;99178.0;;;6.25;100.0
23361;BME280;11852;50.082;18.554;2024-02-21T02:58:03;99175.0;;;6.24;100.0
23361;BME280;11852;50.082;18.554;2024-02-21T02:59:08;99173.0;;;6.25;100.0
23361;BME280;11852;50.082;18.554;2024-02-21T03:00:13;99177.0;;;6.23;100.0
23361;BME280;11852;50.082;18.554;2024-02-21T03:01:18;99174.0;;;6.21;100.0
23361;BME280;11852;50.082;18.554;2024-02-21T03:02:23;99177.0;;;6.21;100.0
23361;BME280;11852;50.082;18.554;2024-02-21T03:03:28;99179.0;;;6.21;100.0
23361;BME280;11852;50.082;18.554;2024-02-21T03:04:33;99178.0;;;6.14;100.0
23361;BME280;11852;50.082;18.554;2024-02-21T03:05:38;99174.0;;;6.09;100.0
23361;BME280;11852;50.082;18.554;2024-02-21T03:06:43;99172.0;;;6.08;100.0
23361;BME280;11852;50.082;18.554;2024-02-21T03:07:48;99172.0;;;6.1;100.0
23361;BME280;11852;50.082;18.554;2024-02-21T03:08:53;99171.0;;;6.13;100.0
23361;BME280;11852;50.082;18.554;2024-02-21T03:09:58;99167.0;;;6.16;100.0
23361;BME280;11852;50.082;18.554;2024-02-21T03:11:03;99167.0;;;6.18;100.0
23361;BME280;11852;50.082;18.554;2024-02-21T03:12:08;99166.0;;;6.15;100.0
23361;BME280;11852;50.082;18.554;2024-02-21T03:13:16;99166.0;;;6.17;100.0
23361;BME280;11852;50.082;18.554;2024-02-21T03:14:21;99162.0;;;6.19;100.0
23361;BME280;11852;50.082;18.554;2024-02-21T03:15:26;99160.0;;;6.19;100.0
23361;BME280;11852;50.082;18.554;2024-02-21T03:16:33;99156.0;;;6.15;100.0
23361;BME280;11852;50.082;18.554;2024-02-21T03:17:38;99159.0;;;6.15;100.0
23361;BME280;11852;50.082;18.554;2024-02-21T03:18:43;99164.0;;;6.11;100.0
23361;BME280;11852;50.082;18.554;2024-02-21T03:19:48;99165.0;;;6.11;100.0
23361;BME280;11852;50.082;18.554;2024-02-21T03:20:53;99168.0;;;6.08;100.0
23361;BME280;11852;50.082;18.554;2024-02-21T03:21:58;99168.0;;;6.09;100.0
23361;BME280;11852;50.082;18.554;2024-02-21T03:23:03;99166.0;;;6.1;100.0
23361;BME280;11852;50.082;18.554;2024-02-21T03:24:08;99168.0;;;6.1;100.0
23361;BME280;11852;50.082;18.554;2024-02-21T03:25:13;99168.0;;;6.1;100.0
23361;BME280;11852;50.082;18.554;2024-02-21T03:26:18;99170.0;;;6.1;100.0
23361;BME280;11852;50.082;18.554;2024-02-21T03:27:23;99172.0;;;6.08;100.0
23361;BME280;11852;50.082;18.554;2024-02-21T03:28:28;99168.0;;;6.09;100.0
23361;BME280;11852;50.082;18.554;2024-02-21T03:29:33;99165.0;;;6.1;100.0
23361;BME280;11852;50.082;18.554;2024-02-21T03:30:38;99168.0;;;6.11;100.0
23361;BME280;11852;50.082;18.554;2024-02-21T03:31:42;99169.0;;;6.12;100.0
23361;BME280;11852;50.082;18.554;2024-02-21T03:32:47;99164.0;;;6.12;100.0
23361;BME280;11852;50.082;18.554;2024-02-21T03:33:52;99166.0;;;6.13;100.0
23361;BME280;11852;50.082;18.554;2024-02-21T03:34:57;99162.0;;;6.14;100.0
23361;BME280;11852;50.082;18.554;2024-02-21T03:36:02;99163.0;;;6.15;100.0
23361;BME280;11852;50.082;18.554;2024-02-21T03:37:08;99162.0;;;6.11;100.0
23361;BME280;11852;50.082;18.554;2024-02-21T03:38:13;99156.0;;;6.11;100.0
23361;BME280;11852;50.082;18.554;2024-02-21T03:39:18;99162.0;;;6.1;100.0
23361;BME280;11852;50.082;18.554;2024-02-21T03:40:23;99163.0;;;6.11;100.0
23361;BME280;11852;50.082;18.554;2024-02-21T03:41:28;99159.0;;;6.1;100.0
23361;BME280;11852;50.082;18.554;2024-02-21T03:42:32;99161.0;;;6.11;100.0
23361;BME280;11852;50.082;18.554;2024-02-21T03:43:38;99162.0;;;6.13;100.0
23361;BME280;11852;50.082;18.554;2024-02-21T03:44:42;99161.0;;;6.13;100.0
23361;BME280;11852;50.082;18.554;2024-02-21T03:45:47;99162.0;;;6.14;100.0
23361;BME280;11852;50.082;18.554;2024-02-21T03:46:52;99162.0;;;6.15;100.0
23361;BME280;11852;50.082;18.554;2024-02-21T03:47:57;99164.0;;;6.14;100.0
23361;BME280;11852;50.082;18.554;2024-02-21T03:49:02;99160.0;;;6.13;100.0
23361;BME280;11852;50.082;18.554;2024-02-21T03:50:08;99162.0;;;6.14;100.0
23361;BME280;11852;50.082;18.554;2024-02-21T03:51:13;99160.0;;;6.14;100.0
23361;BME280;11852;50.082;18.554;2024-02-21T03:52:18;99164.0;;;6.15;100.0
23361;BME280;11852;50.082;18.554;2024-02-21T03:53:23;99161.0;;;6.11;100.0
23361;BME280;11852;50.082;18.554;2024-02-21T03:54:28;99167.0;;;6.08;100.0
23361;BME280;11852;50.082;18.554;2024-02-21T03:55:33;99165.0;;;6.02;100.0
23361;BME280;11852;50.082;18.554;2024-02-21T03:56:38;99169.0;;;6.03;100.0
23361;BME280;11852;50.082;18.554;2024-02-21T03:57:43;99170.0;;;6.04;100.0
23361;BME280;11852;50.082;18.554;2024-02-21T03:58:51;99170.0;;;5.9;100.0
23361;BME280;11852;50.082;18.554;2024-02-21T03:59:57;99173.0;;;5.92;100.0
23361;BME280;11852;50.082;18.554;2024-02-21T04:01:02;99169.0;;;5.87;100.0
23361;BME280;11852;50.082;18.554;2024-02-21T04:02:07;99174.0;;;5.83;100.0
23361;BME280;11852;50.082;18.554;2024-02-21T04:03:11;99169.0;;;5.85;100.0
23361;BME280;11852;50.082;18.554;2024-02-21T04:04:17;99172.0;;;5.81;100.0
23361;BME280;11852;50.082;18.554;2024-02-21T04:05:22;99169.0;;;5.86;100.0
23361;BME280;11852;50.082;18.554;2024-02-21T04:06:27;99165.0;;;5.9;100.0
23361;BME280;11852;50.082;18.554;2024-02-21T04:07:32;99166.0;;;5.96;100.0
23361;BME280;11852;50.082;18.554;2024-02-21T04:08:37;99164.0;;;5.95;100.0
23361;BME280;11852;50.082;18.554;2024-02-21T04:09:45;99160.0;;;5.93;100.0
23361;BME280;11852;50.082;18.554;2024-02-21T04:11:48;99160.0;;;5.93;100.0
23361;BME280;11852;50.082;18.554;2024-02-21T04:13:19;99160.0;;;5.93;100.0
23361;BME280;11852;50.082;18.554;2024-02-21T04:15:04;99160.0;;;5.93;100.0
23361;BME280;11852;50.082;18.554;2024-02-21T04:16:12;99160.0;;;5.93;100.0
23361;BME280;11852;50.082;18.554;2024-02-21T04:18:15;99160.0;;;5.93;100.0
23361;BME280;11852;50.082;18.554;2024-02-21T04:20:13;99160.0;;;5.93;100.0
23361;BME280;11852;50.082;18.554;2024-02-21T04:22:13;99160.0;;;5.93;100.0
23361;BME280;11852;50.082;18.554;2024-02-21T04:23:38;99154.0;;;6.06;100.0
23361;BME280;11852;50.082;18.554;2024-02-21T04:24:43;99154.0;;;6.06;100.0
23361;BME280;11852;50.082;18.554;2024-02-21T04:25:48;99156.0;;;6.06;100.0
23361;BME280;11852;50.082;18.554;2024-02-21T04:26:53;99153.0;;;6.05;100.0
23361;BME280;11852;50.082;18.554;2024-02-21T04:27:57;99152.0;;;6.05;100.0
23361;BME280;11852;50.082;18.554;2024-02-21T04:29:02;99151.0;;;6.06;100.0
23361;BME280;11852;50.082;18.554;2024-02-21T04:30:07;99154.0;;;6.08;100.0
23361;BME280;11852;50.082;18.554;2024-02-21T04:31:12;99149.0;;;6.03;100.0
23361;BME280;11852;50.082;18.554;2024-02-21T04:32:22;99148.0;;;6.03;100.0
23361;BME280;11852;50.082;18.554;2024-02-21T04:33:27;99152.0;;;6.06;100.0
23361;BME280;11852;50.082;18.554;2024-02-21T04:34:32;99146.0;;;6.08;100.0
23361;BME280;11852;50.082;18.554;2024-02-21T04:35:36;99147.0;;;6.09;100.0
23361;BME280;11852;50.082;18.554;2024-02-21T04:36:41;99147.0;;;6.09;100.0
23361;BME280;11852;50.082;18.554;2024-02-21T04:37:46;99145.0;;;6.07;100.0
23361;BME280;11852;50.082;18.554;2024-02-21T04:38:50;99145.0;;;6.04;100.0
23361;BME280;11852;50.082;18.554;2024-02-21T04:39:55;99146.0;;;6.05;100.0
23361;BME280;11852;50.082;18.554;2024-02-21T04:41:00;99140.0;;;6.07;100.0
23361;BME280;11852;50.082;18.554;2024-02-21T04:42:05;99144.0;;;6.04;100.0
23361;BME280;11852;50.082;18.554;2024-02-21T04:43:12;99140.0;;;6.03;100.0
23361;BME280;11852;50.082;18.554;2024-02-21T04:44:17;99141.0;;;6.03;100.0
23361;BME280;11852;50.082;18.554;2024-02-21T04:45:22;99141.0;;;5.98;100.0
23361;BME280;11852;50.082;18.554;2024-02-21T04:46:26;99139.0;;;6.0;100.0
23361;BME280;11852;50.082;18.554;2024-02-21T04:47:34;99140.0;;;5.99;100.0
23361;BME280;11852;50.082;18.554;2024-02-21T04:48:38;99142.0;;;5.98;100.0
23361;BME280;11852;50.082;18.554;2024-02-21T04:49:43;99141.0;;;5.99;100.0
23361;BME280;11852;50.082;18.554;2024-02-21T04:50:48;99136.0;;;6.01;100.0
23361;BME280;11852;50.082;18.554;2024-02-21T04:51:52;99132.0;;;6.03;100.0
23361;BME280;11852;50.082;18.554;2024-02-21T04:52:57;99127.0;;;6.05;100.0
23361;BME280;11852;50.082;18.554;2024-02-21T04:54:02;99127.0;;;6.06;100.0
23361;BME280;11852;50.082;18.554;2024-02-21T04:55:07;99124.0;;;6.07;100.0
23361;BME280;11852;50.082;18.554;2024-02-21T04:56:11;99121.0;;;6.08;100.0
23361;BME280;11852;50.082;18.554;2024-02-21T04:57:16;99128.0;;;6.08;100.0
23361;BME280;11852;50.082;18.554;2024-02-21T04:58:21;99126.0;;;6.05;100.0
23361;BME280;11852;50.082;18.554;2024-02-21T04:59:25;99122.0;;;6.0;100.0
23361;BME280;11852;50.082;18.554;2024-02-21T05:00:30;99120.0;;;6.02;100.0
23361;BME280;11852;50.082;18.554;2024-02-21T05:01:35;99117.0;;;6.02;100.0
23361;BME280;11852;50.082;18.554;2024-02-21T05:02:43;99116.0;;;6.0;100.0
23361;BME280;11852;50.082;18.554;2024-02-21T05:03:47;99113.0;;;5.98;100.0
23361;BME280;11852;50.082;18.554;2024-02-21T05:04:52;99114.0;;;6.0;100.0
23361;BME280;11852;50.082;18.554;2024-02-21T05:05:57;99114.0;;;6.0;100.0
23361;BME280;11852;50.082;18.554;2024-02-21T05:07:02;99117.0;;;6.0;100.0
23361;BME280;11852;50.082;18.554;2024-02-21T05:08:06;99115.0;;;5.99;100.0
23361;BME280;11852;50.082;18.554;2024-02-21T05:09:11;99118.0;;;5.99;100.0
23361;BME280;11852;50.082;18.554;2024-02-21T05:10:16;99119.0;;;5.94;100.0
23361;BME280;11852;50.082;18.554;2024-02-21T05:11:21;99120.0;;;5.95;100.0
23361;BME280;11852;50.082;18.554;2024-02-21T05:12:26;99122.0;;;5.96;100.0
23361;BME280;11852;50.082;18.554;2024-02-21T05:13:31;99119.0;;;5.89;100.0
23361;BME280;11852;50.082;18.554;2024-02-21T05:14:36;99116.0;;;5.93;100.0
23361;BME280;11852;50.082;18.554;2024-02-21T05:15:41;99120.0;;;5.94;100.0
23361;BME280;11852;50.082;18.554;2024-02-21T05:16:46;99113.0;;;5.95;100.0
23361;BME280;11852;50.082;18.554;2024-02-21T05:17:51;99114.0;;;5.96;100.0
23361;BME280;11852;50.082;18.554;2024-02-21T05:18:56;99111.0;;;5.96;100.0
23361;BME280;11852;50.082;18.554;2024-02-21T05:20:01;99111.0;;;5.96;100.0
23361;BME280;11852;50.082;18.554;2024-02-21T05:21:06;99112.0;;;5.95;100.0
23361;BME280;11852;50.082;18.554;2024-02-21T05:22:11;99114.0;;;5.94;100.0
23361;BME280;11852;50.082;18.554;2024-02-21T05:23:16;99111.0;;;5.93;100.0
23361;BME280;11852;50.082;18.554;2024-02-21T05:24:21;99108.0;;;5.89;100.0
23361;BME280;11852;50.082;18.554;2024-02-21T05:25:26;99108.0;;;5.89;100.0
23361;BME280;11852;50.082;18.554;2024-02-21T05:26:31;99108.0;;;5.9;100.0
23361;BME280;11852;50.082;18.554;2024-02-21T05:27:36;99107.0;;;5.86;100.0
23361;BME280;11852;50.082;18.554;2024-02-21T05:28:41;99107.0;;;5.86;100.0
23361;BME280;11852;50.082;18.554;2024-02-21T05:29:45;99109.0;;;5.89;100.0
23361;BME280;11852;50.082;18.554;2024-02-21T05:30:51;99103.0;;;5.86;100.0
23361;BME280;11852;50.082;18.554;2024-02-21T05:31:57;99101.0;;;5.83;100.0
23361;BME280;11852;50.082;18.554;2024-02-21T05:33:05;99100.0;;;5.82;100.0
23361;BME280;11852;50.082;18.554;2024-02-21T05:34:11;99101.0;;;5.85;100.0
23361;BME280;11852;50.082;18.554;2024-02-21T05:35:16;99102.0;;;5.86;100.0
23361;BME280;11852;50.082;18.554;2024-02-21T05:36:21;99103.0;;;5.82;100.0
23361;BME280;11852;50.082;18.554;2024-02-21T05:37:26;99101.0;;;5.84;100.0
23361;BME280;11852;50.082;18.554;2024-02-21T05:38:31;99104.0;;;5.84;100.0
23361;BME280;11852;50.082;18.554;2024-02-21T05:39:36;99105.0;;;5.86;100.0
23361;BME280;11852;50.082;18.554;2024-02-21T05:40:46;99106.0;;;5.89;100.0
23361;BME280;11852;50.082;18.554;2024-02-21T05:41:51;99108.0;;;5.81;100.0
23361;BME280;11852;50.082;18.554;2024-02-21T05:42:56;99102.0;;;5.79;100.0
23361;BME280;11852;50.082;18.554;2024-02-21T05:44:01;99103.0;;;5.83;100.0
23361;BME280;11852;50.082;18.554;2024-02-21T05:45:06;99096.0;;;5.85;100.0
23361;BME280;11852;50.082;18.554;2024-02-21T05:46:13;99099.0;;;5.88;100.0
23361;BME280;11852;50.082;18.554;2024-02-21T05:47:18;99096.0;;;5.82;100.0
23361;BME280;11852;50.082;18.554;2024-02-21T05:48:23;99097.0;;;5.78;100.0
23361;BME280;11852;50.082;18.554;2024-02-21T05:49:28;99094.0;;;5.82;100.0
23361;BME280;11852;50.082;18.554;2024-02-21T05:50:33;99096.0;;;5.79;100.0
23361;BME280;11852;50.082;18.554;2024-02-21T05:51:39;99097.0;;;5.82;100.0
23361;BME280;11852;50.082;18.554;2024-02-21T05:52:46;99097.0;;;5.82;100.0
23361;BME280;11852;50.082;18.554;2024-02-21T05:53:55;99098.0;;;5.81;100.0
23361;BME280;11852;50.082;18.554;2024-02-21T05:55:01;99096.0;;;5.8;100.0
23361;BME280;11852;50.082;18.554;2024-02-21T05:57:17;99095.0;;;5.76;100.0
23361;BME280;11852;50.082;18.554;2024-02-21T05:58:21;99098.0;;;5.69;100.0
23361;BME280;11852;50.082;18.554;2024-02-21T05:59:26;99098.0;;;5.72;100.0